Time;durP1;ratioP1;P1;durP2;ratioP2;P2;SDS_P1;SDS_P2;PMS_P1;PMS_P2;Temp;Humidity;BMP_temperature;BMP_pressure;BME280_temperature;BME280_humidity;BME280_pressure;Samples;Min_cycle;Max_cycle;Signal;HPM_P1;HPM_P2
2022/11/26 00:03:17;;;;;;;;;;;6.90;99.90;;;;;;12571098;28;19935;-84
2022/11/26 00:09:21;;;;;;;;;;;6.80;99.90;;;;;;12583035;28;19964;-84
2022/11/26 00:15:24;;;;;;;;;;;6.70;99.90;;;;;;12575477;28;19933;-84
2022/11/26 00:21:26;;;;;;;;;;;6.80;99.90;;;;;;12585708;28;20288;-84
2022/11/26 00:27:28;;;;;;;;;;;6.70;99.90;;;;;;12572326;28;20406;-84
2022/11/26 00:33:30;;;;;;;;;;;6.80;99.90;;;;;;12581860;28;20380;-84
2022/11/26 00:39:32;;;;;;;;;;;6.90;99.90;;;;;;12585096;28;20380;-84
2022/11/26 00:45:33;;;;;;;;;;;6.80;99.90;;;;;;12581046;28;20408;-84
2022/11/26 00:51:35;;;;;;;;;;;6.70;99.90;;;;;;12572213;28;19925;-84
2022/11/26 00:57:37;;;;;;;;;;;6.80;99.90;;;;;;12586118;28;19936;-84
2022/11/26 01:03:41;;;;;;;;;;;6.80;99.90;;;;;;12565564;28;19935;-84
2022/11/26 01:09:45;;;;;;;;;;;6.80;99.90;;;;;;12585379;28;19928;-84
2022/11/26 01:15:46;;;;;;;;;;;6.80;99.90;;;;;;12581462;28;20236;-84
2022/11/26 01:21:48;;;;;;;;;;;6.60;99.90;;;;;;12587834;28;19932;-84
2022/11/26 01:27:50;;;;;;;;;;;6.70;99.90;;;;;;12570401;28;19928;-84
2022/11/26 01:33:52;;;;;;;;;;;6.70;99.90;;;;;;12580492;28;19928;-85
2022/11/26 01:39:54;;;;;;;;;;;6.70;99.90;;;;;;12582266;28;20402;-84
2022/11/26 01:45:55;;;;;;;;;;;6.70;99.90;;;;;;12581247;28;19932;-84
2022/11/26 01:52:11;;;;;;;;;;;6.60;99.90;;;;;;12562653;28;19932;-84
2022/11/26 01:58:15;;;;;;;;;;;6.60;99.90;;;;;;12578507;28;19950;-84
2022/11/26 02:04:46;;;;;;;;;;;6.60;99.90;;;;;;12568796;28;19924;-84
2022/11/26 02:10:49;;;;;;;;;;;6.70;99.90;;;;;;12494378;28;19963;-84
2022/11/26 02:17:03;;;;;;;;;;;6.80;99.90;;;;;;12561600;28;19929;-84
2022/11/26 02:23:20;;;;;;;;;;;6.80;99.90;;;;;;12565248;28;19924;-84
2022/11/26 02:29:21;;;;;;;;;;;6.80;99.90;;;;;;12576267;28;19924;-84
2022/11/26 02:35:29;;;;;;;;;;;6.80;99.90;;;;;;12574706;28;19928;-84
2022/11/26 02:41:39;;;;;;;;;;;6.80;99.90;;;;;;12590178;28;19931;-85
2022/11/26 02:47:43;;;;;;;;;;;6.70;99.90;;;;;;12571642;28;19933;-84
2022/11/26 02:53:46;;;;;;;;;;;6.60;99.90;;;;;;12577309;28;20316;-85
2022/11/26 02:59:48;;;;;;;;;;;6.70;99.90;;;;;;12586515;28;19929;-84
2022/11/26 03:05:52;;;;;;;;;;;6.70;99.90;;;;;;12577266;28;19929;-85
2022/11/26 03:11:53;;;;;;;;;;;6.70;99.90;;;;;;12579618;28;19955;-84
2022/11/26 03:17:55;;;;;;;;;;;6.70;99.90;;;;;;12562690;28;20017;-84
2022/11/26 03:23:57;;;;;;;;;;;6.70;99.90;;;;;;12554416;28;19970;-84
2022/11/26 03:29:59;;;;;;;;;;;6.60;99.90;;;;;;12566127;28;19951;-85
2022/11/26 03:36:00;;;;;;;;;;;6.70;99.90;;;;;;12577836;28;20402;-84
2022/11/26 03:42:02;;;;;;;;;;;6.70;99.90;;;;;;12562965;28;20402;-84
2022/11/26 03:48:04;;;;;;;;;;;6.80;99.90;;;;;;12578707;28;19932;-85
2022/11/26 03:54:05;;;;;;;;;;;6.70;99.90;;;;;;12595673;28;19931;-84
2022/11/26 04:00:08;;;;;;;;;;;6.70;99.90;;;;;;12571260;28;19928;-84
2022/11/26 04:06:09;;;;;;;;;;;6.60;99.90;;;;;;12567654;28;20364;-84
2022/11/26 04:12:11;;;;;;;;;;;6.70;99.90;;;;;;12582679;28;20404;-84
2022/11/26 04:18:13;;;;;;;;;;;6.60;99.90;;;;;;12595911;28;20518;-85
2022/11/26 04:24:14;;;;;;;;;;;6.60;99.90;;;;;;12574743;28;19932;-84
2022/11/26 04:30:16;;;;;;;;;;;6.50;99.90;;;;;;12568774;28;19925;-84
2022/11/26 04:36:18;;;;;;;;;;;6.60;99.90;;;;;;12588964;28;19925;-84
2022/11/26 04:42:20;;;;;;;;;;;6.60;99.90;;;;;;12567328;28;20300;-84
2022/11/26 04:48:21;;;;;;;;;;;6.60;99.90;;;;;;12583599;28;19925;-84
2022/11/26 04:54:23;;;;;;;;;;;6.60;99.90;;;;;;12578806;28;19925;-84
2022/11/26 05:00:25;;;;;;;;;;;6.60;99.90;;;;;;12594685;28;19924;-84
2022/11/26 05:06:27;;;;;;;;;;;6.50;99.90;;;;;;12588345;28;19932;-84
2022/11/26 05:12:29;;;;;;;;;;;6.50;99.90;;;;;;12594072;28;19924;-84
2022/11/26 05:18:30;;;;;;;;;;;6.60;99.90;;;;;;12591490;28;19931;-84
2022/11/26 05:24:32;;;;;;;;;;;6.50;99.90;;;;;;12558172;28;19924;-84
2022/11/26 05:30:34;;;;;;;;;;;6.50;99.90;;;;;;12580771;28;19931;-85
2022/11/26 05:36:35;;;;;;;;;;;6.50;99.90;;;;;;12586115;28;19931;-84
2022/11/26 05:42:37;;;;;;;;;;;6.60;99.90;;;;;;12572146;28;19925;-84
2022/11/26 05:48:39;;;;;;;;;;;6.60;99.90;;;;;;12588503;28;19995;-84
2022/11/26 05:54:40;;;;;;;;;;;6.50;99.90;;;;;;12573562;28;19936;-85
2022/11/26 06:00:42;;;;;;;;;;;6.50;99.90;;;;;;12590376;28;20407;-84
2022/11/26 06:06:44;;;;;;;;;;;6.50;99.90;;;;;;12564735;28;19928;-85
2022/11/26 06:12:46;;;;;;;;;;;6.50;99.90;;;;;;12582128;28;20380;-85
2022/11/26 06:18:47;;;;;;;;;;;6.50;99.90;;;;;;12571779;28;19955;-84
2022/11/26 06:24:49;;;;;;;;;;;6.50;99.90;;;;;;12577020;28;19924;-84
2022/11/26 06:30:51;;;;;;;;;;;6.50;99.90;;;;;;12581151;28;19928;-84
2022/11/26 06:36:52;;;;;;;;;;;6.60;99.90;;;;;;12579471;28;19933;-84
2022/11/26 06:42:54;;;;;;;;;;;6.50;99.90;;;;;;12570923;28;19940;-85
2022/11/26 06:48:59;;;;;;;;;;;6.60;99.90;;;;;;12581132;28;19952;-84
2022/11/26 06:55:01;;;;;;;;;;;6.60;99.90;;;;;;12555360;28;19928;-84
2022/11/26 07:01:07;;;;;;;;;;;6.60;99.90;;;;;;12594766;28;20284;-85
2022/11/26 07:07:09;;;;;;;;;;;6.50;99.90;;;;;;12590560;28;20852;-86
2022/11/26 07:13:10;;;;;;;;;;;6.50;99.90;;;;;;12596265;28;19924;-85
2022/11/26 07:19:15;;;;;;;;;;;6.50;99.90;;;;;;12575936;28;19953;-86
2022/11/26 07:25:17;;;;;;;;;;;6.50;99.90;;;;;;12579474;28;19924;-86
2022/11/26 07:31:19;;;;;;;;;;;6.50;99.90;;;;;;12574588;28;20288;-87
2022/11/26 07:37:21;;;;;;;;;;;6.40;99.90;;;;;;12577233;28;19932;-85
2022/11/26 07:43:23;;;;;;;;;;;6.50;99.90;;;;;;12562080;28;20396;-85
2022/11/26 07:49:25;;;;;;;;;;;6.50;99.90;;;;;;12562448;28;19932;-85
2022/11/26 07:55:26;;;;;;;;;;;6.60;99.90;;;;;;12577893;28;19924;-85
2022/11/26 08:01:28;;;;;;;;;;;6.60;99.90;;;;;;12585593;28;19929;-86
2022/11/26 08:07:30;;;;;;;;;;;6.60;99.90;;;;;;12577457;28;19982;-85
2022/11/26 08:13:32;;;;;;;;;;;6.60;99.90;;;;;;12577516;28;19933;-85
2022/11/26 08:19:34;;;;;;;;;;;6.60;99.90;;;;;;12576881;28;19928;-85
2022/11/26 08:25:35;;;;;;;;;;;6.60;99.90;;;;;;12590460;28;19931;-85
2022/11/26 08:31:46;;;;;;;;;;;6.70;99.90;;;;;;12587830;28;19928;-86
2022/11/26 08:37:48;;;;;;;;;;;6.80;99.90;;;;;;12579448;28;19975;-86
2022/11/26 08:43:50;;;;;;;;;;;6.80;99.90;;;;;;12587547;28;19932;-86
2022/11/26 08:50:07;;;;;;;;;;;7.00;99.90;;;;;;12567693;28;19932;-86
2022/11/26 08:56:10;;;;;;;;;;;6.90;99.90;;;;;;12599979;28;19924;-86
2022/11/26 09:02:13;;;;;;;;;;;7.00;99.90;;;;;;12583972;28;20285;-86
2022/11/26 09:08:19;;;;;;;;;;;6.90;99.90;;;;;;12586464;28;20420;-86
2022/11/26 09:14:23;;;;;;;;;;;6.90;99.90;;;;;;12584200;28;19925;-86
2022/11/26 09:20:25;;;;;;;;;;;6.90;99.90;;;;;;12587762;28;19924;-86
2022/11/26 09:26:28;;;;;;;;;;;7.00;99.90;;;;;;12567536;28;19932;-86
2022/11/26 09:32:30;;;;;;;;;;;7.10;99.90;;;;;;12562798;28;19932;-86
2022/11/26 09:38:35;;;;;;;;;;;7.10;99.90;;;;;;12564212;28;19929;-85
2022/11/26 09:44:39;;;;;;;;;;;7.30;99.90;;;;;;12566193;28;19925;-86
2022/11/26 09:50:42;;;;;;;;;;;7.30;99.90;;;;;;12590662;28;19925;-86
2022/11/26 09:56:44;;;;;;;;;;;7.40;99.90;;;;;;12585794;28;19932;-85
2022/11/26 10:02:46;;;;;;;;;;;7.40;99.90;;;;;;12591333;28;19925;-86
2022/11/26 10:09:01;;;;;;;;;;;7.60;99.90;;;;;;12573789;28;19937;-85
2022/11/26 10:15:03;;;;;;;;;;;7.50;99.90;;;;;;12570962;28;19925;-86
2022/11/26 10:21:11;;;;;;;;;;;7.60;99.90;;;;;;12587612;28;19929;-85
2022/11/26 10:27:14;;;;;;;;;;;7.70;99.90;;;;;;12578221;28;19935;-85
2022/11/26 10:33:18;;;;;;;;;;;7.80;99.90;;;;;;12589301;28;20296;-85
2022/11/26 10:39:19;;;;;;;;;;;7.80;99.90;;;;;;12564668;28;19924;-85
2022/11/26 10:45:23;;;;;;;;;;;7.90;99.90;;;;;;12585668;28;20273;-85
2022/11/26 10:51:32;;;;;;;;;;;8.10;99.90;;;;;;12596064;28;19937;-85
2022/11/26 10:57:35;;;;;;;;;;;8.20;99.90;;;;;;12583566;28;19931;-85
2022/11/26 11:03:45;;;;;;;;;;;8.40;99.90;;;;;;12576789;28;20389;-85
2022/11/26 11:10:07;;;;;;;;;;;8.50;99.90;;;;;;12563689;28;19932;-86
2022/11/26 11:16:09;;;;;;;;;;;8.50;99.90;;;;;;12556256;28;19928;-85
2022/11/26 11:22:21;;;;;;;;;;;8.50;99.90;;;;;;12570350;28;20396;-85
2022/11/26 11:28:24;;;;;;;;;;;8.70;99.90;;;;;;12546469;28;20284;-84
2022/11/26 11:34:28;;;;;;;;;;;8.80;99.90;;;;;;12559856;28;19929;-85
2022/11/26 11:40:30;;;;;;;;;;;8.80;99.90;;;;;;12568663;28;19931;-84
2022/11/26 11:46:40;;;;;;;;;;;8.80;99.90;;;;;;12580365;28;19925;-84
2022/11/26 11:52:50;;;;;;;;;;;9.00;99.90;;;;;;12559613;28;19924;-84
2022/11/26 11:59:07;;;;;;;;;;;9.20;99.90;;;;;;12584792;28;19925;-85
2022/11/26 12:05:28;;;;;;;;;;;8.90;99.90;;;;;;12571256;28;19925;-85
2022/11/26 12:11:35;;;;;;;;;;;8.90;99.90;;;;;;12580881;28;19924;-85
2022/11/26 12:17:44;;;;;;;;;;;8.80;99.90;;;;;;12563667;28;19932;-85
2022/11/26 12:23:53;;;;;;;;;;;8.80;99.90;;;;;;12581009;28;19928;-85
2022/11/26 12:29:56;;;;;;;;;;;8.90;99.90;;;;;;12575581;28;19928;-85
2022/11/26 12:36:02;;;;;;;;;;;8.90;99.90;;;;;;12548827;28;19932;-85
2022/11/26 12:42:21;;;;;;;;;;;9.00;99.90;;;;;;12570485;28;19925;-85
2022/11/26 12:48:25;;;;;;;;;;;8.90;99.90;;;;;;12564992;28;19929;-85
2022/11/26 12:54:30;;;;;;;;;;;8.80;99.90;;;;;;12567958;28;19993;-85
2022/11/26 13:00:35;;;;;;;;;;;8.70;99.90;;;;;;12584911;28;19925;-85
2022/11/26 13:06:45;;;;;;;;;;;8.70;99.90;;;;;;12556123;28;20291;-85
2022/11/26 13:12:47;;;;;;;;;;;8.80;99.90;;;;;;12583714;28;19928;-85
2022/11/26 13:18:54;;;;;;;;;;;8.90;99.90;;;;;;12584119;28;19925;-84
2022/11/26 13:24:59;;;;;;;;;;;8.90;99.90;;;;;;12587535;28;19924;-85
2022/11/26 13:31:07;;;;;;;;;;;8.90;99.90;;;;;;12577474;28;20078;-84
2022/11/26 13:37:17;;;;;;;;;;;8.90;99.90;;;;;;12569591;28;19932;-84
2022/11/26 13:43:28;;;;;;;;;;;8.90;99.90;;;;;;12569227;28;20376;-86
2022/11/26 13:49:33;;;;;;;;;;;8.80;99.90;;;;;;12591205;28;19924;-86
2022/11/26 13:55:39;;;;;;;;;;;8.80;99.90;;;;;;12577383;28;19928;-86
2022/11/26 14:01:40;;;;;;;;;;;8.60;99.90;;;;;;12578909;28;19932;-85
2022/11/26 14:07:43;;;;;;;;;;;8.50;99.90;;;;;;12572641;28;19925;-86
2022/11/26 14:14:05;;;;;;;;;;;8.50;99.90;;;;;;12566849;28;19929;-85
2022/11/26 14:20:07;;;;;;;;;;;8.40;99.90;;;;;;12583334;28;20593;-85
2022/11/26 14:26:09;;;;;;;;;;;8.30;99.90;;;;;;12576417;28;19925;-85
2022/11/26 14:32:13;;;;;;;;;;;8.30;99.90;;;;;;12570401;28;19940;-86
2022/11/26 14:38:23;;;;;;;;;;;8.20;99.90;;;;;;12570810;28;20399;-85
2022/11/26 14:44:25;;;;;;;;;;;8.20;99.90;;;;;;12565673;28;19928;-85
2022/11/26 14:50:29;;;;;;;;;;;8.20;99.90;;;;;;12577282;28;19924;-85
2022/11/26 14:56:30;;;;;;;;;;;8.30;99.90;;;;;;12560335;28;19936;-86
2022/11/26 15:02:37;;;;;;;;;;;8.20;99.90;;;;;;12594776;28;19925;-86
2022/11/26 15:08:39;;;;;;;;;;;8.10;99.90;;;;;;12579860;28;19931;-86
2022/11/26 15:15:07;;;;;;;;;;;8.10;99.90;;;;;;12590182;28;19924;-85
2022/11/26 15:21:13;;;;;;;;;;;8.10;99.90;;;;;;12564013;28;20388;-85
2022/11/26 15:27:27;;;;;;;;;;;8.10;99.90;;;;;;12589555;28;19928;-85
2022/11/26 15:33:30;;;;;;;;;;;8.10;99.90;;;;;;12568503;28;19948;-85
2022/11/26 15:39:32;;;;;;;;;;;8.10;99.90;;;;;;12545098;28;19925;-85
2022/11/26 15:45:39;;;;;;;;;;;8.00;99.90;;;;;;12564501;28;20334;-85
2022/11/26 15:51:40;;;;;;;;;;;8.00;99.90;;;;;;12578031;28;19924;-84
2022/11/26 15:57:42;;;;;;;;;;;8.00;99.90;;;;;;12583361;28;20384;-84
2022/11/26 16:03:45;;;;;;;;;;;7.90;99.90;;;;;;12570487;28;19924;-84
2022/11/26 16:09:48;;;;;;;;;;;7.90;99.90;;;;;;12579600;28;19928;-84
2022/11/26 16:15:55;;;;;;;;;;;8.10;99.90;;;;;;12569694;28;19925;-84
2022/11/26 16:22:00;;;;;;;;;;;8.10;99.90;;;;;;12570874;28;19925;-84
2022/11/26 16:28:02;;;;;;;;;;;8.00;99.90;;;;;;12581625;28;19924;-84
2022/11/26 16:34:03;;;;;;;;;;;8.00;99.90;;;;;;12573563;28;19924;-84
2022/11/26 16:40:14;;;;;;;;;;;8.00;99.90;;;;;;12566286;28;19928;-84
2022/11/26 16:46:18;;;;;;;;;;;8.00;99.90;;;;;;12592763;28;19932;-85
2022/11/26 16:52:21;;;;;;;;;;;8.00;99.90;;;;;;12580319;28;20459;-84
2022/11/26 16:58:22;;;;;;;;;;;8.00;99.90;;;;;;12608225;28;19943;-85
2022/11/26 17:04:24;;;;;;;;;;;8.00;99.90;;;;;;12575360;28;19924;-84
2022/11/26 17:10:28;;;;;;;;;;;8.00;99.90;;;;;;12591379;28;19928;-84
2022/11/26 17:16:29;;;;;;;;;;;7.90;99.90;;;;;;12588272;28;19931;-84
2022/11/26 17:22:31;;;;;;;;;;;7.90;99.90;;;;;;12588312;28;19933;-85
2022/11/26 17:28:33;;;;;;;;;;;7.90;99.90;;;;;;12580686;28;19940;-84
2022/11/26 17:34:34;;;;;;;;;;;7.90;99.90;;;;;;12553618;28;20308;-84
2022/11/26 17:40:36;;;;;;;;;;;7.90;99.90;;;;;;12578985;28;19924;-84
2022/11/26 17:46:39;;;;;;;;;;;7.90;99.90;;;;;;12551823;28;19924;-84
2022/11/26 17:53:00;;;;;;;;;;;7.90;99.90;;;;;;12564917;28;20384;-84
2022/11/26 17:59:02;;;;;;;;;;;7.90;99.90;;;;;;12572694;28;19929;-84
2022/11/26 18:05:04;;;;;;;;;;;7.80;99.90;;;;;;12570510;28;19926;-84
2022/11/26 18:11:06;;;;;;;;;;;7.90;99.90;;;;;;12575035;28;19933;-84
2022/11/26 18:17:08;;;;;;;;;;;7.90;99.90;;;;;;12572539;28;19955;-84
2022/11/26 18:23:10;;;;;;;;;;;7.90;99.90;;;;;;12565634;28;21344;-84
2022/11/26 18:29:12;;;;;;;;;;;7.80;99.90;;;;;;12578253;28;19933;-84
2022/11/26 18:35:14;;;;;;;;;;;7.80;99.90;;;;;;12572210;28;19932;-84
2022/11/26 18:41:15;;;;;;;;;;;7.80;99.90;;;;;;12569406;28;20308;-84
2022/11/26 18:47:17;;;;;;;;;;;7.80;99.90;;;;;;12562839;28;19940;-84
2022/11/26 18:53:19;;;;;;;;;;;7.80;99.90;;;;;;12565963;28;19936;-84
2022/11/26 18:59:20;;;;;;;;;;;7.70;99.90;;;;;;12583048;28;19936;-84
2022/11/26 19:05:22;;;;;;;;;;;7.70;99.90;;;;;;12586720;28;19932;-84
2022/11/26 19:11:25;;;;;;;;;;;7.60;99.90;;;;;;12584642;28;19925;-84
2022/11/26 19:17:26;;;;;;;;;;;7.60;99.90;;;;;;12572973;28;20372;-84
2022/11/26 19:23:28;;;;;;;;;;;7.50;99.90;;;;;;12574744;28;19933;-84
2022/11/26 19:29:30;;;;;;;;;;;7.50;99.90;;;;;;12575841;28;19925;-84
2022/11/26 19:35:32;;;;;;;;;;;7.40;99.90;;;;;;12571150;28;19925;-83
2022/11/26 19:41:33;;;;;;;;;;;7.30;99.90;;;;;;12580293;28;19924;-84
2022/11/26 19:47:35;;;;;;;;;;;7.40;99.90;;;;;;12591912;28;20388;-84
2022/11/26 19:53:37;;;;;;;;;;;7.30;99.90;;;;;;12557667;28;19925;-84
2022/11/26 19:59:38;;;;;;;;;;;7.20;99.90;;;;;;12573508;28;19925;-84
2022/11/26 20:05:41;;;;;;;;;;;7.00;99.90;;;;;;12601624;28;20411;-84
2022/11/26 20:11:43;;;;;;;;;;;7.00;99.90;;;;;;12595522;28;19931;-84
2022/11/26 20:17:46;;;;;;;;;;;6.90;99.90;;;;;;12602469;28;19925;-84
2022/11/26 20:23:48;;;;;;;;;;;7.00;99.90;;;;;;12572465;28;20000;-84
2022/11/26 20:29:50;;;;;;;;;;;6.90;99.90;;;;;;12632856;28;19909;-85
2022/11/26 20:35:51;;;;;;;;;;;6.80;99.90;;;;;;12628079;28;19932;-84
2022/11/26 20:41:53;;;;;;;;;;;6.80;99.90;;;;;;12641364;28;19928;-85
2022/11/26 20:47:55;;;;;;;;;;;6.70;99.90;;;;;;12637696;28;19947;-84
2022/11/26 20:53:57;;;;;;;;;;;6.70;99.90;;;;;;12618224;28;19983;-84
2022/11/26 20:59:59;;;;;;;;;;;6.60;99.90;;;;;;12607645;28;19932;-85
2022/11/26 21:06:01;;;;;;;;;;;6.50;99.90;;;;;;12584315;28;19925;-84
2022/11/26 21:12:03;;;;;;;;;;;6.40;99.90;;;;;;12599143;28;19933;-84
2022/11/26 21:18:05;;;;;;;;;;;6.20;99.90;;;;;;12588596;28;19925;-84
2022/11/26 21:24:07;;;;;;;;;;;6.10;99.90;;;;;;12573918;28;19933;-85
2022/11/26 21:30:08;;;;;;;;;;;6.00;99.90;;;;;;12579622;28;19936;-84
2022/11/26 21:36:14;;;;;;;;;;;5.90;99.90;;;;;;12573034;28;20023;-84
2022/11/26 21:42:16;;;;;;;;;;;5.90;99.90;;;;;;12572132;28;19950;-83
2022/11/26 21:48:18;;;;;;;;;;;5.90;99.90;;;;;;12590453;28;20387;-84
2022/11/26 21:54:19;;;;;;;;;;;5.90;99.90;;;;;;12574558;28;19931;-84
2022/11/26 22:00:22;;;;;;;;;;;5.80;99.90;;;;;;12584244;28;20003;-84
2022/11/26 22:06:24;;;;;;;;;;;5.70;99.90;;;;;;12569847;28;19925;-85
2022/11/26 22:12:25;;;;;;;;;;;5.60;99.90;;;;;;12582105;28;20090;-84
2022/11/26 22:18:27;;;;;;;;;;;5.50;99.90;;;;;;12582568;28;19928;-84
2022/11/26 22:24:29;;;;;;;;;;;5.50;99.90;;;;;;12582844;28;19925;-84
2022/11/26 22:30:30;;;;;;;;;;;5.50;99.90;;;;;;12563941;28;19925;-84
2022/11/26 22:36:33;;;;;;;;;;;5.50;99.90;;;;;;12583461;28;19928;-84
2022/11/26 22:42:34;;;;;;;;;;;5.50;99.90;;;;;;12581475;28;19932;-84
2022/11/26 22:48:36;;;;;;;;;;;5.40;99.90;;;;;;12584140;28;19928;-84
2022/11/26 22:54:38;;;;;;;;;;;5.40;99.90;;;;;;12552699;28;19924;-84
2022/11/26 23:00:44;;;;;;;;;;;5.40;99.90;;;;;;12581226;28;19932;-83
2022/11/26 23:06:46;;;;;;;;;;;5.40;99.90;;;;;;12552768;28;19928;-84
2022/11/26 23:12:48;;;;;;;;;;;5.40;99.90;;;;;;12575292;28;19925;-83
2022/11/26 23:18:50;;;;;;;;;;;5.30;99.90;;;;;;12574405;28;19948;-84
2022/11/26 23:24:51;;;;;;;;;;;5.30;99.90;;;;;;12557301;28;20399;-84
2022/11/26 23:30:58;;;;;;;;;;;5.20;99.90;;;;;;12569018;28;19928;-83
2022/11/26 23:37:00;;;;;;;;;;;5.20;99.90;;;;;;12560711;28;19936;-84
2022/11/26 23:43:01;;;;;;;;;;;5.20;99.90;;;;;;12559956;28;19974;-84
2022/11/26 23:49:09;;;;;;;;;;;5.10;99.90;;;;;;12590682;28;19952;-84
2022/11/26 23:55:11;;;;;;;;;;;5.10;99.90;;;;;;12566406;28;20292;-84
